Time;durP1;ratioP1;P1;durP2;ratioP2;P2;SDS_P1;SDS_P2;PMS_P1;PMS_P2;Temp;Humidity;BMP_temperature;BMP_pressure;BME280_temperature;BME280_humidity;BME280_pressure;Samples;Min_cycle;Max_cycle;Signal;HPM_P1;HPM_P2
2021/07/09 00:01:25;;;;;;;;;;;10.30;99.90;;;;;;5097515;28;19968;-67
2021/07/09 00:03:51;;;;;;;;;;;10.30;99.90;;;;;;5112335;28;19915;-68
2021/07/09 00:06:21;;;;;;;;;;;10.40;99.90;;;;;;5112551;28;19907;-67
2021/07/09 00:08:48;;;;;;;;;;;10.40;99.90;;;;;;5092899;28;19908;-67
2021/07/09 00:11:16;;;;;;;;;;;10.40;99.90;;;;;;5112514;28;20281;-68
2021/07/09 00:13:43;;;;;;;;;;;10.50;99.90;;;;;;5112622;28;20015;-67
2021/07/09 00:16:13;;;;;;;;;;;10.60;99.90;;;;;;5094327;28;19908;-68
2021/07/09 00:18:40;;;;;;;;;;;10.60;99.90;;;;;;5112733;28;19915;-67
2021/07/09 00:21:07;;;;;;;;;;;10.60;99.90;;;;;;5094375;28;19999;-67
2021/07/09 00:23:34;;;;;;;;;;;10.60;99.90;;;;;;5110268;28;19915;-67
2021/07/09 00:26:01;;;;;;;;;;;10.70;99.90;;;;;;5112545;28;19927;-67
2021/07/09 00:28:28;;;;;;;;;;;10.80;99.90;;;;;;5112919;28;20362;-66
2021/07/09 00:30:54;;;;;;;;;;;10.80;99.90;;;;;;5094439;28;19931;-66
2021/07/09 00:33:21;;;;;;;;;;;10.90;99.90;;;;;;5112812;28;19907;-66
2021/07/09 00:35:47;;;;;;;;;;;11.00;99.90;;;;;;5113273;28;20373;-66
2021/07/09 00:38:14;;;;;;;;;;;11.10;99.90;;;;;;5098934;28;19907;-66
2021/07/09 00:40:41;;;;;;;;;;;11.10;99.90;;;;;;5116682;28;20384;-67
2021/07/09 00:43:08;;;;;;;;;;;11.10;99.90;;;;;;5116403;28;19954;-66
2021/07/09 00:45:35;;;;;;;;;;;11.20;99.90;;;;;;5116004;28;19919;-66
2021/07/09 00:48:01;;;;;;;;;;;11.20;99.90;;;;;;5116420;28;19939;-67
2021/07/09 00:50:28;;;;;;;;;;;11.20;99.90;;;;;;5097924;28;19908;-66
2021/07/09 00:52:55;;;;;;;;;;;11.20;99.90;;;;;;5116028;28;19915;-66
2021/07/09 00:55:21;;;;;;;;;;;11.20;99.90;;;;;;5115696;28;19943;-65
2021/07/09 00:57:49;;;;;;;;;;;11.30;99.90;;;;;;5115965;28;19908;-66
2021/07/09 01:00:18;;;;;;;;;;;11.20;99.90;;;;;;5116036;28;19953;-66
2021/07/09 01:02:45;;;;;;;;;;;11.30;99.90;;;;;;5115890;28;19998;-66
2021/07/09 01:05:12;;;;;;;;;;;11.30;99.90;;;;;;5115843;28;19924;-66
2021/07/09 01:07:39;;;;;;;;;;;11.20;99.90;;;;;;5115191;28;20333;-66
2021/07/09 01:10:10;;;;;;;;;;;11.20;99.90;;;;;;5115801;28;19908;-65
2021/07/09 01:12:37;;;;;;;;;;;11.20;99.90;;;;;;5115736;28;19953;-65
2021/07/09 01:15:05;;;;;;;;;;;11.30;99.90;;;;;;5115743;28;19912;-66
2021/07/09 01:17:32;;;;;;;;;;;11.30;99.90;;;;;;5115337;28;19943;-66
2021/07/09 01:20:00;;;;;;;;;;;11.40;99.90;;;;;;5115613;28;19939;-65
2021/07/09 01:22:28;;;;;;;;;;;11.50;99.90;;;;;;5115908;28;19908;-66
2021/07/09 01:24:54;;;;;;;;;;;11.50;99.90;;;;;;5115735;28;19923;-66
2021/07/09 01:27:21;;;;;;;;;;;11.40;99.90;;;;;;5115505;28;19915;-66
2021/07/09 01:29:48;;;;;;;;;;;11.40;99.90;;;;;;5115105;28;19908;-67
2021/07/09 01:32:15;;;;;;;;;;;11.30;99.90;;;;;;5114880;28;19908;-66
2021/07/09 01:34:42;;;;;;;;;;;11.40;99.90;;;;;;5115349;28;19931;-67
2021/07/09 01:37:12;;;;;;;;;;;11.50;99.90;;;;;;5115402;28;19911;-65
2021/07/09 01:39:38;;;;;;;;;;;11.60;99.90;;;;;;5114940;28;19908;-66
2021/07/09 01:42:05;;;;;;;;;;;11.70;99.90;;;;;;5115044;28;19908;-65
2021/07/09 01:44:32;;;;;;;;;;;11.90;99.90;;;;;;5115066;28;20487;-66
2021/07/09 01:46:59;;;;;;;;;;;12.00;99.90;;;;;;5114969;28;19908;-66
2021/07/09 01:49:25;;;;;;;;;;;11.90;99.90;;;;;;5114279;28;19915;-66
2021/07/09 01:51:52;;;;;;;;;;;11.80;99.90;;;;;;5114714;28;19912;-66
2021/07/09 01:54:19;;;;;;;;;;;11.80;99.90;;;;;;5115109;28;19908;-66
2021/07/09 01:56:45;;;;;;;;;;;11.80;99.90;;;;;;5115032;28;20006;-67
2021/07/09 01:59:12;;;;;;;;;;;11.80;99.90;;;;;;5114897;28;19994;-66
2021/07/09 02:01:39;;;;;;;;;;;11.70;99.90;;;;;;5114676;28;19908;-65
2021/07/09 02:04:06;;;;;;;;;;;11.70;99.90;;;;;;5114956;28;19940;-66
2021/07/09 02:06:33;;;;;;;;;;;11.60;99.90;;;;;;5115195;28;19919;-66
2021/07/09 02:08:59;;;;;;;;;;;11.60;99.90;;;;;;5114892;28;20316;-66
2021/07/09 02:11:26;;;;;;;;;;;11.60;99.90;;;;;;5114684;28;19907;-67
2021/07/09 02:13:53;;;;;;;;;;;11.60;99.90;;;;;;5114413;28;19952;-67
2021/07/09 02:16:19;;;;;;;;;;;11.50;99.90;;;;;;5114374;28;20337;-66
2021/07/09 02:18:46;;;;;;;;;;;11.40;99.90;;;;;;5114700;28;20266;-66
2021/07/09 02:21:13;;;;;;;;;;;11.50;99.90;;;;;;5114462;28;20062;-66
2021/07/09 02:23:40;;;;;;;;;;;11.50;99.90;;;;;;5114121;28;19908;-66
2021/07/09 02:26:07;;;;;;;;;;;11.50;99.90;;;;;;5114245;28;20010;-67
2021/07/09 02:28:33;;;;;;;;;;;11.50;99.90;;;;;;5114414;28;19918;-67
2021/07/09 02:31:00;;;;;;;;;;;11.50;99.90;;;;;;5114142;28;19915;-66
2021/07/09 02:33:26;;;;;;;;;;;11.50;99.90;;;;;;5114423;28;19978;-66
2021/07/09 02:35:53;;;;;;;;;;;11.50;99.90;;;;;;5114180;28;19912;-66
2021/07/09 02:38:20;;;;;;;;;;;11.50;99.90;;;;;;5095846;28;19908;-66
2021/07/09 02:40:46;;;;;;;;;;;11.50;99.90;;;;;;5113884;28;19908;-66
2021/07/09 02:43:13;;;;;;;;;;;11.50;99.90;;;;;;5113775;28;19923;-67
2021/07/09 02:45:40;;;;;;;;;;;11.50;99.90;;;;;;5113675;28;19963;-67
2021/07/09 02:48:07;;;;;;;;;;;11.50;99.90;;;;;;5114079;28;20349;-67
2021/07/09 02:50:33;;;;;;;;;;;11.50;99.90;;;;;;5113876;28;19916;-66
2021/07/09 02:53:00;;;;;;;;;;;11.60;99.90;;;;;;5113598;28;19939;-66
2021/07/09 02:55:27;;;;;;;;;;;11.50;99.90;;;;;;5113772;28;20060;-67
2021/07/09 02:57:53;;;;;;;;;;;11.50;99.90;;;;;;5113341;28;20354;-67
2021/07/09 03:00:20;;;;;;;;;;;11.50;99.90;;;;;;5113192;28;19914;-66
2021/07/09 03:02:47;;;;;;;;;;;11.40;99.90;;;;;;5113274;28;19953;-65
2021/07/09 03:05:13;;;;;;;;;;;11.40;99.90;;;;;;5113605;28;19920;-67
2021/07/09 03:07:40;;;;;;;;;;;11.40;99.90;;;;;;5113468;28;19908;-66
2021/07/09 03:10:08;;;;;;;;;;;11.40;99.90;;;;;;5113250;28;19915;-67
2021/07/09 03:12:35;;;;;;;;;;;11.40;99.90;;;;;;5113340;28;20369;-66
2021/07/09 03:15:04;;;;;;;;;;;11.40;99.90;;;;;;5105811;28;19918;-66
2021/07/09 03:17:30;;;;;;;;;;;11.40;99.90;;;;;;5113145;28;19907;-66
2021/07/09 03:19:57;;;;;;;;;;;11.40;99.90;;;;;;5113404;28;19908;-66
2021/07/09 03:22:24;;;;;;;;;;;11.40;99.90;;;;;;5094972;28;20277;-66
2021/07/09 03:24:50;;;;;;;;;;;11.40;99.90;;;;;;5113093;28;20274;-67
2021/07/09 03:27:17;;;;;;;;;;;11.30;99.90;;;;;;5113312;28;19911;-68
2021/07/09 03:29:44;;;;;;;;;;;11.30;99.90;;;;;;5111401;28;19915;-67
2021/07/09 03:32:10;;;;;;;;;;;11.30;99.90;;;;;;5112932;28;19951;-67
2021/07/09 03:34:37;;;;;;;;;;;11.20;99.90;;;;;;5113054;28;19939;-67
2021/07/09 03:37:04;;;;;;;;;;;11.20;99.90;;;;;;5112971;28;20354;-68
2021/07/09 03:39:31;;;;;;;;;;;11.20;99.90;;;;;;5112751;28;19914;-66
2021/07/09 03:41:57;;;;;;;;;;;11.20;99.90;;;;;;5112780;28;19961;-67
2021/07/09 03:44:24;;;;;;;;;;;11.20;99.90;;;;;;5104627;28;19920;-67
2021/07/09 03:46:51;;;;;;;;;;;11.20;99.90;;;;;;5113062;28;19915;-67
2021/07/09 03:49:17;;;;;;;;;;;11.30;99.90;;;;;;5113147;28;19911;-66
2021/07/09 03:51:44;;;;;;;;;;;11.30;99.90;;;;;;5112331;28;19912;-66
2021/07/09 03:54:12;;;;;;;;;;;11.30;99.90;;;;;;5112820;28;19933;-66
2021/07/09 03:56:39;;;;;;;;;;;11.30;99.90;;;;;;5094493;28;19931;-66
2021/07/09 03:59:05;;;;;;;;;;;11.30;99.90;;;;;;5111139;28;20006;-65
2021/07/09 04:01:32;;;;;;;;;;;11.30;99.90;;;;;;5112676;28;19914;-66
2021/07/09 04:03:59;;;;;;;;;;;11.30;99.90;;;;;;5112803;28;19939;-66
2021/07/09 04:06:25;;;;;;;;;;;11.30;99.90;;;;;;5112377;28;19916;-65
2021/07/09 04:08:52;;;;;;;;;;;11.30;99.90;;;;;;5112939;28;20312;-66
2021/07/09 04:11:19;;;;;;;;;;;11.30;99.90;;;;;;5112859;28;19907;-66
2021/07/09 04:13:46;;;;;;;;;;;11.30;99.90;;;;;;5096009;28;19916;-67
2021/07/09 04:16:12;;;;;;;;;;;11.30;99.90;;;;;;5116732;28;19961;-68
2021/07/09 04:18:39;;;;;;;;;;;11.30;99.90;;;;;;5116816;28;19907;-67
2021/07/09 04:21:06;;;;;;;;;;;11.30;99.90;;;;;;5116392;28;19907;-68
2021/07/09 04:23:32;;;;;;;;;;;11.30;99.90;;;;;;5116655;28;19914;-68
2021/07/09 04:25:59;;;;;;;;;;;11.30;99.90;;;;;;5116513;28;19916;-67
2021/07/09 04:28:26;;;;;;;;;;;11.30;99.90;;;;;;5116595;28;20014;-68
2021/07/09 04:30:54;;;;;;;;;;;11.30;99.90;;;;;;5116201;28;19931;-67
2021/07/09 04:33:22;;;;;;;;;;;11.30;99.90;;;;;;5116557;28;19908;-68
2021/07/09 04:35:50;;;;;;;;;;;11.30;99.90;;;;;;5116306;28;19944;-67
2021/07/09 04:38:17;;;;;;;;;;;11.30;99.90;;;;;;5116485;28;19914;-68
2021/07/09 04:40:43;;;;;;;;;;;11.30;99.90;;;;;;5116194;28;19912;-68
2021/07/09 04:43:10;;;;;;;;;;;11.30;99.90;;;;;;5116252;28;20027;-67
2021/07/09 04:45:37;;;;;;;;;;;11.40;99.90;;;;;;5116337;28;19916;-66
2021/07/09 04:48:04;;;;;;;;;;;11.30;99.90;;;;;;5116644;28;19912;-67
2021/07/09 04:50:31;;;;;;;;;;;11.40;99.90;;;;;;5116651;28;19908;-67
2021/07/09 04:52:58;;;;;;;;;;;11.40;99.90;;;;;;5116570;28;20049;-68
2021/07/09 04:55:24;;;;;;;;;;;11.40;99.90;;;;;;5116736;28;19911;-68
2021/07/09 04:57:51;;;;;;;;;;;11.40;99.90;;;;;;5116229;28;20319;-68
2021/07/09 05:00:18;;;;;;;;;;;11.50;99.90;;;;;;5115878;28;20269;-68
2021/07/09 05:02:45;;;;;;;;;;;11.50;99.90;;;;;;5116212;28;20006;-68
2021/07/09 05:05:13;;;;;;;;;;;11.50;99.90;;;;;;5115760;28;19969;-67
2021/07/09 05:07:40;;;;;;;;;;;11.50;99.90;;;;;;5115905;28;19914;-67
2021/07/09 05:10:06;;;;;;;;;;;11.50;99.90;;;;;;5116174;28;19908;-66
2021/07/09 05:12:33;;;;;;;;;;;11.50;99.90;;;;;;5116165;28;20312;-66
2021/07/09 05:15:00;;;;;;;;;;;11.40;99.90;;;;;;5116064;28;20370;-68
2021/07/09 05:17:27;;;;;;;;;;;11.40;99.90;;;;;;5115659;28;19951;-67
2021/07/09 05:19:53;;;;;;;;;;;11.50;99.90;;;;;;5115549;28;19919;-67
2021/07/09 05:22:20;;;;;;;;;;;11.50;99.90;;;;;;5115809;28;20381;-67
2021/07/09 05:24:47;;;;;;;;;;;11.50;99.90;;;;;;5114481;28;20015;-67
2021/07/09 05:27:15;;;;;;;;;;;11.50;99.90;;;;;;5115571;28;19915;-67
2021/07/09 05:29:42;;;;;;;;;;;11.50;99.90;;;;;;5115050;28;19908;-68
2021/07/09 05:32:09;;;;;;;;;;;11.50;99.90;;;;;;5115716;28;19972;-68
2021/07/09 05:34:35;;;;;;;;;;;11.50;99.90;;;;;;5115759;28;19955;-68
2021/07/09 05:37:03;;;;;;;;;;;11.50;99.90;;;;;;5115698;28;20003;-68
2021/07/09 05:39:29;;;;;;;;;;;11.50;99.90;;;;;;5115524;28;19908;-69
2021/07/09 05:41:58;;;;;;;;;;;11.60;99.90;;;;;;5115513;28;19991;-68
2021/07/09 05:44:24;;;;;;;;;;;11.60;99.90;;;;;;5114959;28;19922;-68
2021/07/09 05:46:51;;;;;;;;;;;11.50;99.90;;;;;;5115169;28;20358;-69
2021/07/09 05:49:18;;;;;;;;;;;11.60;99.90;;;;;;5115240;28;20345;-68
2021/07/09 05:51:44;;;;;;;;;;;11.50;99.90;;;;;;5114732;28;19908;-68
2021/07/09 05:54:11;;;;;;;;;;;11.60;99.90;;;;;;5115065;28;19930;-68
2021/07/09 05:56:37;;;;;;;;;;;11.60;99.90;;;;;;5115003;28;20014;-68
2021/07/09 05:59:04;;;;;;;;;;;11.60;99.90;;;;;;5114742;28;19945;-68
2021/07/09 06:01:31;;;;;;;;;;;11.50;99.90;;;;;;5114672;28;19953;-67
2021/07/09 06:03:58;;;;;;;;;;;11.50;99.90;;;;;;5114892;28;19915;-69
2021/07/09 06:06:24;;;;;;;;;;;11.50;99.90;;;;;;5114761;28;20002;-68
2021/07/09 06:08:51;;;;;;;;;;;11.50;99.90;;;;;;5114775;28;19946;-68
2021/07/09 06:11:18;;;;;;;;;;;11.40;99.90;;;;;;5114805;28;19915;-68
2021/07/09 06:13:45;;;;;;;;;;;11.40;99.90;;;;;;5114195;28;20250;-68
2021/07/09 06:16:11;;;;;;;;;;;11.40;99.90;;;;;;5114617;28;19915;-68
2021/07/09 06:18:38;;;;;;;;;;;11.50;99.90;;;;;;5114415;28;19912;-68
2021/07/09 06:21:05;;;;;;;;;;;11.40;99.90;;;;;;5114528;28;19915;-68
2021/07/09 06:23:31;;;;;;;;;;;11.40;99.90;;;;;;5114098;28;19908;-67
2021/07/09 06:25:58;;;;;;;;;;;11.40;99.90;;;;;;5114166;28;19923;-67
2021/07/09 06:28:24;;;;;;;;;;;11.30;99.90;;;;;;5113965;28;20292;-67
2021/07/09 06:30:51;;;;;;;;;;;11.40;99.90;;;;;;5113058;28;20049;-67
2021/07/09 06:33:18;;;;;;;;;;;11.40;99.90;;;;;;5111964;28;20292;-67
2021/07/09 06:35:45;;;;;;;;;;;11.30;99.90;;;;;;5095675;28;19908;-67
2021/07/09 06:38:11;;;;;;;;;;;11.30;99.90;;;;;;5114108;28;20337;-67
2021/07/09 06:40:38;;;;;;;;;;;11.40;99.90;;;;;;5113972;28;19955;-67
2021/07/09 06:43:08;;;;;;;;;;;11.30;99.90;;;;;;5113819;28;20366;-67
2021/07/09 06:45:35;;;;;;;;;;;11.40;99.90;;;;;;5109870;28;19928;-67
2021/07/09 06:48:02;;;;;;;;;;;11.40;99.90;;;;;;5093556;28;19916;-67
2021/07/09 06:50:29;;;;;;;;;;;11.40;99.90;;;;;;5075514;28;20282;-67
2021/07/09 06:52:55;;;;;;;;;;;11.40;99.90;;;;;;5093241;28;19908;-67
2021/07/09 06:55:22;;;;;;;;;;;11.40;99.90;;;;;;5106956;28;20328;-68
2021/07/09 06:57:49;;;;;;;;;;;11.40;99.90;;;;;;5110017;28;19908;-68
2021/07/09 07:00:17;;;;;;;;;;;11.40;99.90;;;;;;5113661;28;20162;-68
2021/07/09 07:02:44;;;;;;;;;;;11.40;99.90;;;;;;5113540;28;19958;-68
2021/07/09 07:05:11;;;;;;;;;;;11.40;99.90;;;;;;5113349;28;19949;-68
2021/07/09 07:07:38;;;;;;;;;;;11.40;99.90;;;;;;5113197;28;19960;-69
2021/07/09 07:10:05;;;;;;;;;;;11.40;99.90;;;;;;5111462;28;19912;-68
2021/07/09 07:12:32;;;;;;;;;;;11.40;99.90;;;;;;5113524;28;19952;-67
2021/07/09 07:14:59;;;;;;;;;;;11.40;99.90;;;;;;5113221;28;19950;-68
2021/07/09 07:17:25;;;;;;;;;;;11.50;99.90;;;;;;5113497;28;19915;-68
2021/07/09 07:19:52;;;;;;;;;;;11.50;99.90;;;;;;5113249;28;19951;-68
2021/07/09 07:22:19;;;;;;;;;;;11.40;99.90;;;;;;5113294;28;19998;-68
2021/07/09 07:24:49;;;;;;;;;;;11.40;99.90;;;;;;5111245;28;19973;-68
2021/07/09 07:27:16;;;;;;;;;;;11.50;99.90;;;;;;5113171;28;19960;-68
2021/07/09 07:29:43;;;;;;;;;;;11.40;99.90;;;;;;5112716;28;19907;-68
2021/07/09 07:32:09;;;;;;;;;;;11.30;99.90;;;;;;5113273;28;19980;-68
2021/07/09 07:34:36;;;;;;;;;;;11.30;99.90;;;;;;5113297;28;19915;-68
2021/07/09 07:37:03;;;;;;;;;;;11.30;99.90;;;;;;5113134;28;19919;-68
2021/07/09 07:39:29;;;;;;;;;;;11.20;99.90;;;;;;5111059;28;20282;-67
2021/07/09 07:41:57;;;;;;;;;;;11.20;99.90;;;;;;5110261;28;20383;-67
2021/07/09 07:44:26;;;;;;;;;;;11.20;99.90;;;;;;5092673;28;20035;-68
2021/07/09 07:46:54;;;;;;;;;;;11.20;99.90;;;;;;5110745;28;19997;-68
2021/07/09 07:49:24;;;;;;;;;;;11.10;99.90;;;;;;5110959;28;20438;-67
2021/07/09 07:51:51;;;;;;;;;;;11.10;99.90;;;;;;5110770;28;19965;-68
2021/07/09 07:54:19;;;;;;;;;;;11.10;99.90;;;;;;5108369;28;19922;-68
2021/07/09 07:56:46;;;;;;;;;;;11.20;99.90;;;;;;5110874;28;19957;-67
2021/07/09 07:59:13;;;;;;;;;;;11.10;99.90;;;;;;5110775;28;20350;-67
2021/07/09 08:01:40;;;;;;;;;;;11.10;99.90;;;;;;5110597;28;20285;-68
2021/07/09 08:04:07;;;;;;;;;;;11.10;99.90;;;;;;5110632;28;19958;-68
2021/07/09 08:06:33;;;;;;;;;;;11.10;99.90;;;;;;5110716;28;19916;-68
2021/07/09 08:09:00;;;;;;;;;;;11.10;99.90;;;;;;5109081;28;19922;-68
2021/07/09 08:11:27;;;;;;;;;;;11.10;99.90;;;;;;5110795;28;20425;-68
2021/07/09 08:13:53;;;;;;;;;;;11.10;99.90;;;;;;5110474;28;19912;-68
2021/07/09 08:16:27;;;;;;;;;;;11.00;99.90;;;;;;5112932;28;20273;-68
2021/07/09 08:18:53;;;;;;;;;;;11.00;99.90;;;;;;5112546;28;19916;-67
2021/07/09 08:21:20;;;;;;;;;;;11.10;99.90;;;;;;5111941;28;19908;-68
2021/07/09 08:23:47;;;;;;;;;;;11.00;99.90;;;;;;5110946;28;19908;-68
2021/07/09 08:26:13;;;;;;;;;;;11.10;99.90;;;;;;5110606;28;19922;-68
2021/07/09 08:28:40;;;;;;;;;;;11.10;99.90;;;;;;5110523;28;19908;-68
2021/07/09 08:31:07;;;;;;;;;;;11.10;99.90;;;;;;5109050;28;19994;-68
2021/07/09 08:33:33;;;;;;;;;;;11.10;99.90;;;;;;5110314;28;20441;-68
2021/07/09 08:36:01;;;;;;;;;;;11.00;99.90;;;;;;5110569;28;19919;-68
2021/07/09 08:38:27;;;;;;;;;;;11.10;99.90;;;;;;5110510;28;19912;-68
2021/07/09 08:40:54;;;;;;;;;;;11.10;99.90;;;;;;5110340;28;19916;-68
2021/07/09 08:43:21;;;;;;;;;;;11.10;99.90;;;;;;5110175;28;19927;-67
2021/07/09 08:45:48;;;;;;;;;;;11.10;99.90;;;;;;5092982;28;19924;-67
2021/07/09 08:48:14;;;;;;;;;;;11.10;99.90;;;;;;5108134;28;20370;-68
2021/07/09 08:50:41;;;;;;;;;;;11.10;99.90;;;;;;5110436;28;20374;-67
2021/07/09 08:53:08;;;;;;;;;;;11.10;99.90;;;;;;5110086;28;19916;-68
2021/07/09 08:55:34;;;;;;;;;;;11.10;99.90;;;;;;5109931;28;20696;-68
2021/07/09 08:58:01;;;;;;;;;;;11.00;99.90;;;;;;5110403;28;19912;-68
2021/07/09 09:00:28;;;;;;;;;;;11.10;99.90;;;;;;5112214;28;19916;-69
2021/07/09 09:02:55;;;;;;;;;;;11.00;99.90;;;;;;5113820;28;19908;-68
2021/07/09 09:05:21;;;;;;;;;;;11.00;99.90;;;;;;5114236;28;19976;-68
2021/07/09 09:08:07;;;;;;;;;;;11.10;99.90;;;;;;5115676;28;19908;-68
2021/07/09 09:11:03;;;;;;;;;;;11.10;99.90;;;;;;5115862;28;19916;-69
2021/07/09 09:13:30;;;;;;;;;;;11.00;99.90;;;;;;5102437;28;20273;-69
2021/07/09 09:15:59;;;;;;;;;;;11.10;99.90;;;;;;5111546;28;19912;-69
2021/07/09 09:18:29;;;;;;;;;;;11.10;99.90;;;;;;5115801;28;19908;-69
2021/07/09 09:21:00;;;;;;;;;;;11.00;99.90;;;;;;5115885;28;19908;-66
2021/07/09 09:23:27;;;;;;;;;;;11.00;99.90;;;;;;5115696;28;19914;-67
2021/07/09 09:25:55;;;;;;;;;;;11.00;99.90;;;;;;5115318;28;20222;-67
2021/07/09 09:28:21;;;;;;;;;;;11.00;99.90;;;;;;5115649;28;19914;-67
2021/07/09 09:30:53;;;;;;;;;;;11.00;99.90;;;;;;5113895;28;20332;-68
2021/07/09 09:33:19;;;;;;;;;;;11.00;99.90;;;;;;5097519;28;19912;-68
2021/07/09 09:35:48;;;;;;;;;;;11.00;99.90;;;;;;5115170;28;19914;-69
2021/07/09 09:38:16;;;;;;;;;;;11.00;99.90;;;;;;5115347;28;19994;-70
2021/07/09 09:40:44;;;;;;;;;;;10.90;99.90;;;;;;5115299;28;19922;-68
2021/07/09 09:43:12;;;;;;;;;;;10.90;99.90;;;;;;5114977;28;20320;-68
2021/07/09 09:45:39;;;;;;;;;;;10.90;99.90;;;;;;5112852;28;19927;-68
2021/07/09 09:48:15;;;;;;;;;;;10.90;99.90;;;;;;5115179;28;19999;-68
2021/07/09 09:50:49;;;;;;;;;;;10.80;99.90;;;;;;5115064;28;19930;-67
2021/07/09 09:53:36;;;;;;;;;;;10.90;99.90;;;;;;5115051;28;19912;-69
2021/07/09 09:56:06;;;;;;;;;;;10.90;99.90;;;;;;5114758;28;20006;-67
2021/07/09 09:58:33;;;;;;;;;;;10.90;99.90;;;;;;5114852;28;20003;-68
2021/07/09 10:01:01;;;;;;;;;;;10.80;99.90;;;;;;5111740;28;20354;-68
2021/07/09 10:03:27;;;;;;;;;;;10.80;99.90;;;;;;5114935;28;19912;-68
2021/07/09 10:05:54;;;;;;;;;;;10.80;99.90;;;;;;5114637;28;20006;-68
2021/07/09 10:08:24;;;;;;;;;;;10.80;99.90;;;;;;5114699;28;19951;-68
2021/07/09 10:10:51;;;;;;;;;;;10.80;99.90;;;;;;5114173;28;19914;-68
2021/07/09 10:13:19;;;;;;;;;;;10.90;99.90;;;;;;5114576;28;19907;-68
2021/07/09 10:15:48;;;;;;;;;;;10.80;99.90;;;;;;5112596;28;19914;-69
2021/07/09 10:18:18;;;;;;;;;;;10.80;99.90;;;;;;5114597;28;19911;-68
2021/07/09 10:20:45;;;;;;;;;;;10.90;99.90;;;;;;5114612;28;19908;-68
2021/07/09 10:23:16;;;;;;;;;;;10.80;99.90;;;;;;5114729;28;20262;-68
2021/07/09 10:25:45;;;;;;;;;;;10.80;99.90;;;;;;5114478;28;19969;-68
2021/07/09 10:28:12;;;;;;;;;;;10.70;99.90;;;;;;5113559;28;19929;-68
2021/07/09 10:30:42;;;;;;;;;;;10.70;99.90;;;;;;5104555;28;19970;-68
2021/07/09 10:33:28;;;;;;;;;;;10.80;99.90;;;;;;5073638;28;19956;-68
2021/07/09 10:35:55;;;;;;;;;;;10.70;99.90;;;;;;5073712;28;20313;-68
2021/07/09 10:38:23;;;;;;;;;;;10.70;99.90;;;;;;5073917;28;19995;-67
2021/07/09 10:40:50;;;;;;;;;;;10.70;99.90;;;;;;5073437;28;19952;-68
2021/07/09 10:43:17;;;;;;;;;;;10.80;99.90;;;;;;5063522;28;19944;-68
2021/07/09 10:45:45;;;;;;;;;;;10.70;99.90;;;;;;5072796;28;19920;-68
2021/07/09 10:48:13;;;;;;;;;;;10.80;99.90;;;;;;5073464;28;19908;-68
2021/07/09 10:50:39;;;;;;;;;;;10.80;99.90;;;;;;5073454;28;19958;-68
2021/07/09 10:53:13;;;;;;;;;;;10.70;99.90;;;;;;5073250;28;20356;-68
2021/07/09 10:55:47;;;;;;;;;;;10.80;99.90;;;;;;5073053;28;19953;-67
2021/07/09 10:58:22;;;;;;;;;;;10.70;99.90;;;;;;5076974;28;19916;-67
2021/07/09 11:01:15;;;;;;;;;;;10.80;99.90;;;;;;5093156;28;19908;-67
2021/07/09 11:03:46;;;;;;;;;;;10.80;99.90;;;;;;5091088;28;19961;-68
2021/07/09 11:06:20;;;;;;;;;;;10.80;99.90;;;;;;5092140;28;19916;-66
2021/07/09 11:09:10;;;;;;;;;;;10.80;99.90;;;;;;5093483;28;19908;-69
2021/07/09 11:11:37;;;;;;;;;;;10.80;99.90;;;;;;5087456;28;19912;-68
2021/07/09 11:14:07;;;;;;;;;;;10.80;99.90;;;;;;5092138;28;19916;-69
2021/07/09 11:16:35;;;;;;;;;;;10.90;99.90;;;;;;5092799;28;19912;-69
2021/07/09 11:19:05;;;;;;;;;;;10.90;99.90;;;;;;5093170;28;19912;-69
2021/07/09 11:21:34;;;;;;;;;;;10.90;99.90;;;;;;5090988;28;19915;-69
2021/07/09 11:24:14;;;;;;;;;;;10.90;99.90;;;;;;5092693;28;20000;-68
2021/07/09 11:26:47;;;;;;;;;;;10.90;99.90;;;;;;5093101;28;19963;-69
2021/07/09 11:29:21;;;;;;;;;;;10.90;99.90;;;;;;5091843;28;19917;-69
2021/07/09 11:31:48;;;;;;;;;;;11.00;99.90;;;;;;5092295;28;20024;-69
2021/07/09 11:34:15;;;;;;;;;;;11.00;99.90;;;;;;5092852;28;19919;-69
2021/07/09 11:36:56;;;;;;;;;;;11.00;99.90;;;;;;5092830;28;19915;-69
2021/07/09 11:39:28;;;;;;;;;;;11.00;99.90;;;;;;5092806;28;19908;-69
2021/07/09 11:42:03;;;;;;;;;;;11.00;99.90;;;;;;5091960;28;19908;-69
2021/07/09 11:44:49;;;;;;;;;;;11.00;99.90;;;;;;5092739;28;19969;-69
2021/07/09 11:47:20;;;;;;;;;;;11.00;99.90;;;;;;5088804;28;19908;-68
2021/07/09 11:49:48;;;;;;;;;;;10.90;99.90;;;;;;5092456;28;19919;-67
2021/07/09 11:52:18;;;;;;;;;;;11.00;99.90;;;;;;5092816;28;19961;-68
2021/07/09 11:54:45;;;;;;;;;;;10.90;99.90;;;;;;5092655;28;19908;-67
2021/07/09 11:57:13;;;;;;;;;;;10.90;99.90;;;;;;5091492;28;20282;-67
2021/07/09 11:59:42;;;;;;;;;;;10.90;99.90;;;;;;5091901;28;19908;-68
2021/07/09 12:02:13;;;;;;;;;;;10.90;99.90;;;;;;5092519;28;19912;-68
2021/07/09 12:04:41;;;;;;;;;;;10.90;99.90;;;;;;5092486;28;19956;-68
2021/07/09 12:07:19;;;;;;;;;;;10.90;99.90;;;;;;5091828;28;19912;-68
2021/07/09 12:10:05;;;;;;;;;;;10.90;99.90;;;;;;5084638;28;19955;-68
2021/07/09 12:12:33;;;;;;;;;;;10.90;99.90;;;;;;5080242;28;19974;-67
2021/07/09 12:15:02;;;;;;;;;;;10.90;99.90;;;;;;5092407;28;19995;-68
2021/07/09 12:17:31;;;;;;;;;;;10.90;99.90;;;;;;5092396;28;19909;-69
2021/07/09 12:19:57;;;;;;;;;;;10.90;99.90;;;;;;5090978;28;20322;-68
2021/07/09 12:22:25;;;;;;;;;;;11.00;99.90;;;;;;5092222;28;19912;-68
2021/07/09 12:24:55;;;;;;;;;;;10.90;99.90;;;;;;5092252;28;20434;-68
2021/07/09 12:27:21;;;;;;;;;;;10.90;99.90;;;;;;5088754;28;19958;-68
2021/07/09 12:29:49;;;;;;;;;;;10.90;99.90;;;;;;5092350;28;19951;-69
2021/07/09 12:32:15;;;;;;;;;;;10.90;99.90;;;;;;5092774;28;19961;-68
2021/07/09 12:34:42;;;;;;;;;;;10.90;99.90;;;;;;5095953;28;19912;-68
2021/07/09 12:37:09;;;;;;;;;;;10.90;99.90;;;;;;5096746;28;19931;-67
2021/07/09 12:39:36;;;;;;;;;;;10.90;99.90;;;;;;5094989;28;20255;-68
2021/07/09 12:42:12;;;;;;;;;;;10.90;99.90;;;;;;5096088;28;19912;-68
2021/07/09 12:44:59;;;;;;;;;;;10.90;99.90;;;;;;5116614;28;20004;-67
2021/07/09 12:47:26;;;;;;;;;;;10.90;99.90;;;;;;5116222;28;19990;-68
2021/07/09 12:50:12;;;;;;;;;;;10.90;99.90;;;;;;5116260;28;19931;-68
2021/07/09 12:52:38;;;;;;;;;;;10.90;99.90;;;;;;5116227;28;19908;-68
2021/07/09 12:55:05;;;;;;;;;;;10.90;99.90;;;;;;5110278;28;20355;-68
2021/07/09 12:57:32;;;;;;;;;;;10.90;99.90;;;;;;5114639;28;19918;-69
2021/07/09 12:59:59;;;;;;;;;;;10.90;99.90;;;;;;5097914;28;20002;-69
2021/07/09 13:02:25;;;;;;;;;;;11.00;99.90;;;;;;5098193;28;20069;-67
2021/07/09 13:04:52;;;;;;;;;;;10.90;99.90;;;;;;5116145;28;20358;-67
2021/07/09 13:07:19;;;;;;;;;;;10.90;99.90;;;;;;5116041;28;19908;-67
2021/07/09 13:09:47;;;;;;;;;;;10.90;99.90;;;;;;5112924;28;19912;-67
2021/07/09 13:12:13;;;;;;;;;;;10.90;99.90;;;;;;5115583;28;20427;-67
2021/07/09 13:14:50;;;;;;;;;;;10.90;99.90;;;;;;5115838;28;19908;-67
2021/07/09 13:17:18;;;;;;;;;;;11.00;99.90;;;;;;5115742;28;20422;-67
2021/07/09 13:19:45;;;;;;;;;;;11.00;99.90;;;;;;5115636;28;20358;-67
2021/07/09 13:22:12;;;;;;;;;;;11.00;99.90;;;;;;5115654;28;20279;-69
2021/07/09 13:24:39;;;;;;;;;;;10.90;99.90;;;;;;5113065;28;19916;-67
2021/07/09 13:27:28;;;;;;;;;;;10.90;99.90;;;;;;5115470;28;19916;-67
2021/07/09 13:29:59;;;;;;;;;;;11.00;99.90;;;;;;5115295;28;19953;-66
2021/07/09 13:32:36;;;;;;;;;;;10.90;99.90;;;;;;5115243;28;19908;-68
2021/07/09 13:35:04;;;;;;;;;;;11.00;99.90;;;;;;5115529;28;19914;-68
2021/07/09 13:37:30;;;;;;;;;;;11.00;99.90;;;;;;5115380;28;19915;-68
2021/07/09 13:39:57;;;;;;;;;;;11.00;99.90;;;;;;5112693;28;19908;-68
2021/07/09 13:42:24;;;;;;;;;;;11.00;99.90;;;;;;5115072;28;19924;-68
2021/07/09 13:44:51;;;;;;;;;;;11.00;99.90;;;;;;5114354;28;19916;-68
2021/07/09 13:47:17;;;;;;;;;;;11.00;99.90;;;;;;5115097;28;19935;-68
2021/07/09 13:49:44;;;;;;;;;;;11.00;99.90;;;;;;5115005;28;19955;-68
2021/07/09 13:52:11;;;;;;;;;;;11.00;99.90;;;;;;5115088;28;19968;-68
2021/07/09 13:54:37;;;;;;;;;;;11.10;99.90;;;;;;5112688;28;19920;-68
2021/07/09 13:57:04;;;;;;;;;;;11.10;99.90;;;;;;5113974;28;19942;-68
2021/07/09 13:59:31;;;;;;;;;;;11.00;99.90;;;;;;5114862;28;19907;-68
2021/07/09 14:01:57;;;;;;;;;;;11.10;99.90;;;;;;5114809;28;19915;-68
2021/07/09 14:04:24;;;;;;;;;;;11.10;99.90;;;;;;5114663;28;19911;-67
2021/07/09 14:06:50;;;;;;;;;;;11.10;99.90;;;;;;5114768;28;20343;-68
2021/07/09 14:09:17;;;;;;;;;;;11.10;99.90;;;;;;5112332;28;19912;-68
2021/07/09 14:11:45;;;;;;;;;;;11.10;99.90;;;;;;5114507;28;19912;-68
2021/07/09 14:14:11;;;;;;;;;;;11.10;99.90;;;;;;5114782;28;19908;-68
2021/07/09 14:16:38;;;;;;;;;;;11.10;99.90;;;;;;5114810;28;20258;-67
2021/07/09 14:19:04;;;;;;;;;;;11.10;99.90;;;;;;5114346;28;20401;-68
2021/07/09 14:21:31;;;;;;;;;;;11.10;99.90;;;;;;5114380;28;19957;-68